Time;durP1;ratioP1;P1;durP2;ratioP2;P2;SDS_P1;SDS_P2;PMS_P1;PMS_P2;Temp;Humidity;BMP_temperature;BMP_pressure;BME280_temperature;BME280_humidity;BME280_pressure;Samples;Min_cycle;Max_cycle;Signal;HPM_P1;HPM_P2
2021/04/05 00:01:31;;;;;;;27.90;14.57;;;6.00;99.90;;;;;;4907528;29;20700;-76
2021/04/05 00:04:15;;;;;;;27.47;12.37;;;6.00;99.90;;;;;;4917116;29;20216;-76
2021/04/05 00:07:00;;;;;;;24.03;13.87;;;6.00;99.90;;;;;;4916711;29;20212;-76
2021/04/05 00:09:45;;;;;;;33.83;15.47;;;6.00;99.90;;;;;;4915174;29;20260;-76
2021/04/05 00:12:30;;;;;;;30.33;16.00;;;6.00;99.90;;;;;;4926897;29;20239;-76
2021/04/05 00:15:17;;;;;;;28.13;16.37;;;6.00;99.90;;;;;;4926599;29;20243;-76
2021/04/05 00:18:02;;;;;;;28.27;15.17;;;6.00;99.90;;;;;;4937573;29;20599;-76
2021/04/05 00:20:51;;;;;;;29.80;17.07;;;6.10;99.90;;;;;;4937007;29;20275;-76
2021/04/05 00:23:36;;;;;;;31.57;15.67;;;6.00;99.90;;;;;;4917372;29;20247;-76
2021/04/05 00:26:22;;;;;;;29.70;16.03;;;6.00;99.90;;;;;;4916662;29;20255;-76
2021/04/05 00:29:07;;;;;;;28.80;16.47;;;6.00;99.90;;;;;;4915223;29;20839;-76
2021/04/05 00:31:52;;;;;;;30.23;15.67;;;6.00;99.90;;;;;;4914218;29;20206;-76
2021/04/05 00:34:37;;;;;;;32.47;17.27;;;5.90;99.90;;;;;;4916037;29;20242;-76
2021/04/05 00:37:22;;;;;;;29.70;17.87;;;6.00;99.90;;;;;;4903040;29;20210;-76
2021/04/05 00:40:08;;;;;;;35.07;17.20;;;5.90;99.90;;;;;;4914053;29;20239;-77
2021/04/05 00:42:54;;;;;;;30.53;15.73;;;5.90;99.90;;;;;;4910003;29;20273;-76
2021/04/05 00:45:39;;;;;;;32.27;16.63;;;6.00;99.90;;;;;;4902471;29;20215;-76
2021/04/05 00:48:26;;;;;;;32.80;16.27;;;6.00;99.90;;;;;;4902996;29;20402;-76
2021/04/05 00:51:14;;;;;;;33.57;17.80;;;5.90;99.90;;;;;;4906242;29;20208;-76
2021/04/05 00:54:00;;;;;;;30.37;16.50;;;5.90;99.90;;;;;;4901508;29;20239;-76
2021/04/05 00:56:45;;;;;;;35.43;17.67;;;5.90;99.90;;;;;;4903877;29;20598;-76
2021/04/05 00:59:30;;;;;;;34.07;17.17;;;5.90;99.90;;;;;;4903280;29;20239;-76
2021/04/05 01:02:15;;;;;;;33.33;19.33;;;5.90;99.90;;;;;;4910690;29;20235;-76
2021/04/05 01:05:01;;;;;;;42.30;25.30;;;5.90;99.90;;;;;;4915408;29;20249;-76
2021/04/05 01:07:46;;;;;;;40.30;21.33;;;5.80;99.90;;;;;;4913281;29;20259;-76
2021/04/05 01:10:32;;;;;;;37.50;18.27;;;5.80;99.90;;;;;;4913738;29;20333;-76
2021/04/05 01:13:19;;;;;;;28.90;16.53;;;5.80;99.90;;;;;;4909619;29;20252;-76
2021/04/05 01:16:04;;;;;;;30.60;13.70;;;5.80;99.90;;;;;;4909720;29;20700;-77
2021/04/05 01:18:49;;;;;;;30.70;17.33;;;5.80;99.90;;;;;;4904423;29;20231;-76
2021/04/05 01:21:37;;;;;;;33.77;16.80;;;5.80;99.90;;;;;;4908771;29;20307;-76
2021/04/05 01:24:23;;;;;;;31.53;16.23;;;5.80;99.90;;;;;;4911512;29;20223;-76
2021/04/05 01:27:08;;;;;;;29.73;15.97;;;5.70;99.90;;;;;;4906432;29;20231;-76
2021/04/05 01:29:53;;;;;;;31.37;17.30;;;5.70;99.90;;;;;;4913005;29;20336;-76
2021/04/05 01:32:38;;;;;;;37.87;17.37;;;5.70;99.90;;;;;;4915540;29;20321;-76
2021/04/05 01:35:22;;;;;;;32.90;16.63;;;5.70;99.90;;;;;;4903284;29;20207;-76
2021/04/05 01:38:08;;;;;;;38.03;17.73;;;5.70;99.90;;;;;;4912100;29;20727;-76
2021/04/05 01:40:56;;;;;;;35.60;14.07;;;5.70;99.90;;;;;;4915157;29;20299;-76
2021/04/05 01:43:41;;;;;;;33.83;16.43;;;5.70;99.90;;;;;;4914983;29;20615;-76
2021/04/05 01:46:28;;;;;;;36.67;16.03;;;5.70;99.90;;;;;;4915405;29;20208;-76
2021/04/05 01:49:14;;;;;;;32.03;17.63;;;5.70;99.90;;;;;;4915151;29;20235;-76
2021/04/05 01:51:59;;;;;;;24.33;12.50;;;5.80;99.90;;;;;;4918376;29;20263;-76
2021/04/05 01:54:43;;;;;;;33.57;16.97;;;5.80;99.90;;;;;;4917426;29;20572;-76
2021/04/05 01:57:30;;;;;;;29.33;15.47;;;5.80;99.90;;;;;;4918407;29;20229;-76
2021/04/05 02:00:19;;;;;;;30.43;16.10;;;5.90;99.90;;;;;;4907577;29;20276;-76
2021/04/05 02:03:06;;;;;;;37.47;17.97;;;5.90;99.90;;;;;;4916730;29;20200;-76
2021/04/05 02:05:55;;;;;;;34.83;16.70;;;6.10;99.90;;;;;;4918780;29;20206;-76
2021/04/05 02:08:40;;;;;;;32.33;15.67;;;6.10;99.90;;;;;;4906537;29;20256;-76
2021/04/05 02:11:27;;;;;;;28.63;15.30;;;6.20;99.90;;;;;;4916121;29;20267;-76
2021/04/05 02:14:12;;;;;;;31.97;15.90;;;6.20;99.90;;;;;;4899984;29;20231;-76
2021/04/05 02:16:57;;;;;;;28.77;17.00;;;6.30;99.90;;;;;;4913786;29;20208;-76
2021/04/05 02:19:42;;;;;;;29.53;15.87;;;6.40;99.90;;;;;;4907336;29;20235;-76
2021/04/05 02:22:27;;;;;;;38.07;17.20;;;6.50;99.90;;;;;;4905814;29;20786;-76
2021/04/05 02:25:15;;;;;;;22.17;13.77;;;6.50;99.90;;;;;;4915084;29;20215;-77
2021/04/05 02:28:01;;;;;;;32.73;16.23;;;6.60;99.90;;;;;;4918088;29;20219;-76
2021/04/05 02:30:47;;;;;;;26.93;15.90;;;6.60;99.90;;;;;;4919043;29;20367;-76
2021/04/05 02:33:36;;;;;;;24.90;11.13;;;6.70;99.90;;;;;;4905339;29;20231;-76
2021/04/05 02:36:23;;;;;;;29.40;14.57;;;6.80;99.90;;;;;;4902296;29;20207;-76
2021/04/05 02:39:10;;;;;;;28.10;14.53;;;6.80;99.90;;;;;;4918216;29;20275;-76
2021/04/05 02:41:56;;;;;;;36.67;15.67;;;6.80;99.90;;;;;;4919159;29;20256;-76
2021/04/05 02:44:40;;;;;;;31.40;16.40;;;6.90;99.90;;;;;;4918200;29;20208;-76
2021/04/05 02:47:27;;;;;;;35.80;15.30;;;6.90;99.90;;;;;;4905280;29;20783;-76
2021/04/05 02:50:14;;;;;;;30.90;16.57;;;7.00;99.90;;;;;;4919856;29;20328;-76
2021/04/05 02:53:05;;;;;;;34.53;18.63;;;7.00;99.90;;;;;;4906629;29;20228;-76
2021/04/05 02:55:50;;;;;;;26.67;15.97;;;7.00;99.90;;;;;;4917436;29;20576;-76
2021/04/05 02:58:39;;;;;;;35.10;14.03;;;7.00;99.90;;;;;;4918636;29;20596;-76
2021/04/05 03:01:26;;;;;;;34.63;18.30;;;7.00;99.90;;;;;;4905351;29;20653;-76
2021/04/05 03:04:12;;;;;;;39.00;16.43;;;7.00;99.90;;;;;;4914142;29;20219;-76
2021/04/05 03:06:57;;;;;;;35.10;16.80;;;7.00;99.90;;;;;;4918891;29;20211;-76
2021/04/05 03:09:42;;;;;;;27.47;13.30;;;7.00;99.90;;;;;;4917228;29;20656;-76
2021/04/05 03:12:28;;;;;;;30.90;14.77;;;7.00;99.90;;;;;;4917041;29;20354;-76
2021/04/05 03:15:14;;;;;;;36.17;17.67;;;7.00;99.90;;;;;;4906923;29;20630;-76
2021/04/05 03:18:04;;;;;;;26.63;13.77;;;7.00;99.90;;;;;;4914887;29;20293;-76
2021/04/05 03:20:51;;;;;;;40.37;17.77;;;7.00;99.90;;;;;;4901510;29;20721;-76
2021/04/05 03:23:36;;;;;;;34.77;18.00;;;7.00;99.90;;;;;;4910321;29;20272;-76
2021/04/05 03:26:21;;;;;;;32.83;15.63;;;7.00;99.90;;;;;;4912894;29;20268;-76
2021/04/05 03:29:09;;;;;;;40.93;18.83;;;7.00;99.90;;;;;;4908071;29;20291;-76
2021/04/05 03:31:56;;;;;;;34.63;19.17;;;7.00;99.90;;;;;;4914747;29;20581;-76
2021/04/05 03:34:48;;;;;;;38.40;16.93;;;7.00;99.90;;;;;;4917216;29;20206;-76
2021/04/05 03:37:35;;;;;;;35.33;16.03;;;7.10;99.90;;;;;;4917261;29;20616;-76
2021/04/05 03:40:20;;;;;;;46.10;17.77;;;7.10;99.90;;;;;;4912988;29;20724;-76
2021/04/05 03:43:11;;;;;;;42.77;18.53;;;7.10;99.90;;;;;;4916997;29;20646;-76
2021/04/05 03:45:59;;;;;;;48.00;18.50;;;7.10;99.90;;;;;;4904259;29;20216;-76
2021/04/05 03:48:49;;;;;;;38.83;17.80;;;7.10;99.90;;;;;;4903955;29;20272;-76
2021/04/05 03:51:38;;;;;;;37.40;18.63;;;7.20;99.90;;;;;;4907767;29;20231;-76
2021/04/05 03:54:29;;;;;;;31.47;12.80;;;7.20;99.90;;;;;;4907051;29;20312;-76
2021/04/05 03:57:17;;;;;;;37.83;15.17;;;7.20;99.90;;;;;;4898677;29;20249;-76
2021/04/05 04:00:08;;;;;;;38.07;18.03;;;7.30;99.90;;;;;;4916028;29;20236;-76
2021/04/05 04:02:55;;;;;;;40.20;18.50;;;7.30;99.90;;;;;;4915364;29;20200;-76
2021/04/05 04:05:41;;;;;;;37.13;17.63;;;7.40;99.90;;;;;;4898199;29;20241;-76
2021/04/05 04:08:31;;;;;;;43.30;18.17;;;7.40;99.90;;;;;;4905593;29;20746;-76
2021/04/05 04:11:23;;;;;;;40.37;16.80;;;7.40;99.90;;;;;;4913292;29;20220;-76
2021/04/05 04:14:09;;;;;;;38.03;16.77;;;7.40;99.90;;;;;;4905144;29;20296;-76
2021/04/05 04:16:55;;;;;;;32.87;18.17;;;7.40;99.90;;;;;;4903095;29;20747;-76
2021/04/05 04:19:41;;;;;;;31.53;14.93;;;7.50;99.90;;;;;;4905533;29;20580;-76
2021/04/05 04:22:28;;;;;;;39.33;17.73;;;7.50;99.90;;;;;;4908510;29;20290;-76
2021/04/05 04:25:14;;;;;;;44.63;20.40;;;7.60;99.90;;;;;;4904304;29;20240;-76
2021/04/05 04:28:00;;;;;;;31.90;17.03;;;7.60;99.90;;;;;;4916452;29;20555;-76
2021/04/05 04:30:45;;;;;;;33.30;17.77;;;7.70;99.90;;;;;;4911871;29;20336;-76
2021/04/05 04:33:31;;;;;;;30.40;13.90;;;7.70;99.90;;;;;;4912548;29;20223;-76
2021/04/05 04:36:22;;;;;;;41.17;16.43;;;7.70;99.90;;;;;;4907355;29;20240;-76
2021/04/05 04:39:07;;;;;;;34.83;15.27;;;7.80;99.90;;;;;;4915466;29;20239;-76
2021/04/05 04:41:52;;;;;;;38.13;15.80;;;7.80;99.90;;;;;;4916347;29;20327;-76
2021/04/05 04:44:39;;;;;;;32.00;16.43;;;7.80;99.90;;;;;;4909242;29;20216;-76
2021/04/05 04:47:24;;;;;;;35.77;16.30;;;7.90;99.90;;;;;;4908948;29;20219;-76
2021/04/05 04:50:13;;;;;;;39.20;16.10;;;7.90;99.90;;;;;;4903862;29;20685;-76
2021/04/05 04:52:58;;;;;;;32.50;16.37;;;7.90;99.90;;;;;;4899549;29;20275;-76
2021/04/05 04:55:44;;;;;;;34.33;15.23;;;8.00;99.90;;;;;;4915098;29;20207;-76
2021/04/05 04:58:29;;;;;;;33.93;17.20;;;8.00;99.90;;;;;;4916243;29;20239;-76
2021/04/05 05:01:15;;;;;;;35.80;17.40;;;8.00;99.90;;;;;;4902594;29;20282;-76
2021/04/05 05:04:04;;;;;;;38.37;18.27;;;8.00;99.90;;;;;;4912041;29;20231;-76
2021/04/05 05:06:52;;;;;;;36.03;19.13;;;8.00;99.90;;;;;;4916565;29;20211;-76
2021/04/05 05:09:37;;;;;;;33.57;16.50;;;8.00;99.90;;;;;;4909338;29;20243;-76
2021/04/05 05:12:23;;;;;;;35.87;18.40;;;8.00;99.90;;;;;;4919458;29;20308;-76
2021/04/05 05:15:10;;;;;;;33.57;14.40;;;8.00;99.90;;;;;;4916281;29;20211;-76
2021/04/05 05:17:57;;;;;;;35.80;16.33;;;8.00;99.90;;;;;;4913247;29;20259;-76
2021/04/05 05:20:42;;;;;;;36.83;15.70;;;8.00;99.90;;;;;;4911093;29;20293;-76
2021/04/05 05:23:28;;;;;;;35.23;18.27;;;8.00;99.90;;;;;;4914113;29;20723;-76
2021/04/05 05:26:16;;;;;;;40.23;19.00;;;8.00;99.90;;;;;;4917510;29;20223;-76
2021/04/05 05:29:06;;;;;;;30.73;19.53;;;8.00;99.90;;;;;;4907820;29;20235;-76
2021/04/05 05:31:51;;;;;;;38.13;18.10;;;8.00;99.90;;;;;;4912757;29;20244;-77
2021/04/05 05:34:38;;;;;;;40.47;18.00;;;8.00;99.90;;;;;;4917447;29;20231;-76
2021/04/05 05:37:24;;;;;;;39.50;17.30;;;8.00;99.90;;;;;;4916560;29;20321;-76
2021/04/05 05:40:12;;;;;;;36.73;17.50;;;8.00;99.90;;;;;;4911400;29;20264;-76
2021/04/05 05:43:12;;;;;;;24.63;12.27;;;8.00;99.90;;;;;;4909787;29;20300;-76
2021/04/05 05:46:15;;;;;;;37.37;19.50;;;7.90;99.90;;;;;;4908299;29;20275;-77
2021/04/05 05:49:11;;;;;;;38.27;17.87;;;8.00;99.90;;;;;;4896683;29;20255;-77
2021/04/05 05:52:15;;;;;;;41.00;18.73;;;7.90;99.90;;;;;;4911595;29;20215;-76
2021/04/05 05:55:25;;;;;;;35.77;16.90;;;8.00;99.90;;;;;;4897806;29;20292;-77
2021/04/05 05:58:14;;;;;;;27.53;13.00;;;8.00;99.90;;;;;;4903596;29;20232;-77
2021/04/05 06:01:10;;;;;;;10.83;2.90;;;8.00;99.90;;;;;;4898063;29;20340;-77
2021/04/05 06:04:01;;;;;;;10.63;2.63;;;8.00;99.90;;;;;;4913648;29;20224;-77
2021/04/05 06:06:57;;;;;;;4.97;1.80;;;7.90;99.90;;;;;;4923870;29;20251;-77
2021/04/05 06:10:02;;;;;;;3.60;1.60;;;7.90;99.90;;;;;;4903670;29;20339;-77
2021/04/05 06:12:57;;;;;;;3.90;1.73;;;7.80;99.90;;;;;;4908871;29;20212;-77
2021/04/05 06:16:01;;;;;;;4.53;1.47;;;7.70;99.90;;;;;;4918909;29;20223;-76
2021/04/05 06:19:02;;;;;;;5.07;1.63;;;7.60;99.90;;;;;;4901327;29;20706;-77
2021/04/05 06:21:57;;;;;;;4.90;1.20;;;7.50;99.90;;;;;;4913435;29;20219;-76
2021/04/05 06:24:50;;;;;;;7.00;1.77;;;7.50;99.90;;;;;;4906538;29;20203;-76
2021/04/05 06:27:42;;;;;;;5.40;1.73;;;7.40;99.90;;;;;;4912540;29;20255;-76
2021/04/05 06:30:30;;;;;;;5.67;1.93;;;7.30;99.90;;;;;;4913338;29;20231;-76
2021/04/05 06:33:20;;;;;;;7.43;2.60;;;7.30;99.90;;;;;;4914316;29;20223;-76
2021/04/05 06:36:30;;;;;;;6.83;2.43;;;7.20;99.90;;;;;;4911438;29;20247;-76
2021/04/05 06:39:19;;;;;;;6.63;2.33;;;7.10;99.90;;;;;;4913124;29;20234;-75
2021/04/05 06:42:35;;;;;;;6.10;1.90;;;7.10;99.90;;;;;;4914293;29;20211;-77
2021/04/05 06:45:53;;;;;;;8.73;2.60;;;7.00;99.90;;;;;;4912725;29;20265;-77
2021/04/05 06:49:08;;;;;;;4.47;1.50;;;6.90;99.90;;;;;;4917090;29;20244;-77
2021/04/05 06:52:16;;;;;;;7.03;1.70;;;6.90;99.90;;;;;;4913558;29;20212;-77
2021/04/05 06:55:20;;;;;;;6.70;1.40;;;6.80;99.90;;;;;;4914991;29;20231;-77
2021/04/05 06:58:18;;;;;;;5.97;1.60;;;6.80;99.90;;;;;;4916071;29;20845;-77
2021/04/05 07:01:16;;;;;;;5.53;2.03;;;6.70;99.90;;;;;;4912651;29;20227;-77
2021/04/05 07:04:28;;;;;;;7.33;1.97;;;6.70;99.90;;;;;;4925542;29;20198;-77
2021/04/05 07:07:24;;;;;;;7.03;2.03;;;6.70;99.90;;;;;;4935098;29;20200;-77
2021/04/05 07:10:11;;;;;;;6.63;2.00;;;6.60;99.90;;;;;;4938973;29;20239;-77
2021/04/05 07:13:01;;;;;;;9.90;1.90;;;6.60;99.90;;;;;;4933067;29;20248;-77
2021/04/05 07:15:58;;;;;;;6.33;1.27;;;6.60;99.90;;;;;;4917897;29;20215;-77
2021/04/05 07:18:52;;;;;;;7.50;1.60;;;6.70;99.90;;;;;;4914983;29;20784;-77
2021/04/05 07:21:47;;;;;;;5.47;1.33;;;6.70;99.90;;;;;;4915104;29;20691;-77
2021/04/05 07:24:35;;;;;;;4.37;0.83;;;6.70;99.90;;;;;;4914415;29;20399;-77
2021/04/05 07:27:33;;;;;;;3.53;0.77;;;6.70;99.90;;;;;;4911480;29;20223;-78
2021/04/05 07:30:22;;;;;;;2.70;0.70;;;6.70;99.90;;;;;;4912507;29;20516;-77
2021/04/05 07:33:24;;;;;;;3.17;0.70;;;6.70;99.90;;;;;;4912599;29;20234;-77
2021/04/05 07:36:13;;;;;;;1.63;0.90;;;6.70;99.90;;;;;;4911281;29;20215;-77
2021/04/05 07:39:06;;;;;;;3.00;0.80;;;6.70;99.90;;;;;;4910628;29;20231;-77
2021/04/05 07:41:58;;;;;;;3.53;0.63;;;6.60;99.90;;;;;;4909943;29;20279;-78
2021/04/05 07:44:52;;;;;;;5.97;0.90;;;6.60;99.90;;;;;;4911750;29;20216;-78
2021/04/05 07:47:44;;;;;;;7.20;1.00;;;6.60;99.90;;;;;;4909639;29;20259;-78
2021/04/05 07:50:38;;;;;;;10.00;2.20;;;6.50;99.90;;;;;;4912597;29;20235;-77
2021/04/05 07:53:31;;;;;;;7.63;1.70;;;6.50;99.90;;;;;;4912552;29;20219;-77
2021/04/05 07:56:22;;;;;;;6.90;1.27;;;6.50;99.90;;;;;;4911553;29;20259;-79
2021/04/05 07:59:14;;;;;;;7.43;1.60;;;6.40;99.90;;;;;;4911570;29;20792;-77
2021/04/05 08:02:08;;;;;;;12.27;2.00;;;6.40;99.90;;;;;;4911884;29;20339;-77
2021/04/05 08:05:05;;;;;;;16.13;2.37;;;6.40;99.90;;;;;;4913380;29;20236;-77
2021/04/05 08:08:09;;;;;;;8.07;2.10;;;6.30;99.90;;;;;;4910765;29;20224;-77
2021/04/05 08:11:01;;;;;;;15.93;2.63;;;6.30;99.90;;;;;;4911731;29;20207;-77
2021/04/05 08:13:57;;;;;;;13.77;2.27;;;6.20;99.90;;;;;;4911265;29;20562;-77
2021/04/05 08:16:51;;;;;;;13.20;2.57;;;6.20;99.90;;;;;;4912773;29;20755;-77
2021/04/05 08:19:46;;;;;;;10.00;2.93;;;6.10;99.90;;;;;;4909131;29;20595;-77
2021/04/05 08:22:43;;;;;;;24.27;4.27;;;6.10;99.90;;;;;;4912560;29;20208;-77
2021/04/05 08:25:43;;;;;;;18.70;3.43;;;6.10;99.90;;;;;;4915041;29;20211;-77
2021/04/05 08:28:39;;;;;;;13.77;3.00;;;6.10;99.90;;;;;;4906259;29;20258;-77
2021/04/05 08:31:35;;;;;;;12.90;2.67;;;6.10;99.90;;;;;;4914894;29;20579;-77
2021/04/05 08:34:34;;;;;;;14.30;2.87;;;6.10;99.90;;;;;;4914559;29;20222;-77
2021/04/05 08:37:28;;;;;;;15.33;3.93;;;6.10;99.90;;;;;;4913576;29;20211;-77
2021/04/05 08:40:24;;;;;;;14.87;3.10;;;6.10;99.90;;;;;;4911001;29;20260;-77
2021/04/05 08:43:21;;;;;;;18.17;5.70;;;6.10;99.90;;;;;;4912945;29;20404;-78
2021/04/05 08:46:12;;;;;;;13.93;3.03;;;6.20;99.90;;;;;;4910366;29;20283;-77
2021/04/05 08:48:59;;;;;;;11.93;2.60;;;6.20;99.90;;;;;;4904742;29;20272;-77
2021/04/05 08:51:48;;;;;;;13.20;3.00;;;6.30;99.90;;;;;;4896536;29;20579;-75
2021/04/05 08:54:38;;;;;;;14.70;3.37;;;6.40;99.90;;;;;;4912249;29;20239;-77
2021/04/05 08:57:28;;;;;;;14.00;3.23;;;6.50;99.90;;;;;;4914000;29;20207;-77
2021/04/05 09:00:15;;;;;;;12.87;3.30;;;6.70;99.90;;;;;;4914629;29;20343;-77
2021/04/05 09:03:04;;;;;;;11.47;2.50;;;6.80;99.90;;;;;;4904696;29;20215;-77
2021/04/05 09:05:51;;;;;;;11.67;2.00;;;7.00;99.90;;;;;;4912199;29;20216;-77
2021/04/05 09:08:36;;;;;;;9.53;2.30;;;7.20;99.90;;;;;;4904085;29;20271;-77
2021/04/05 09:11:24;;;;;;;5.30;1.37;;;7.50;99.90;;;;;;4908546;29;20211;-75
2021/04/05 09:14:13;;;;;;;5.57;1.30;;;7.70;99.90;;;;;;4911791;29;20339;-76
2021/04/05 09:17:27;;;;;;;5.80;1.97;;;8.00;99.90;;;;;;4911832;29;20211;-76
2021/04/05 09:20:24;;;;;;;5.67;1.43;;;8.10;99.90;;;;;;4912678;29;20235;-77
2021/04/05 09:23:25;;;;;;;6.60;2.17;;;8.20;99.90;;;;;;4906614;29;20215;-77
2021/04/05 09:26:51;;;;;;;7.13;1.70;;;8.30;99.90;;;;;;4909490;29;20259;-77
2021/04/05 09:29:41;;;;;;;3.63;1.10;;;8.40;99.90;;;;;;4910927;29;20246;-77
2021/04/05 09:33:00;;;;;;;3.30;1.10;;;8.60;99.90;;;;;;4901572;29;20614;-77
2021/04/05 09:35:59;;;;;;;2.70;0.73;;;8.60;99.90;;;;;;4901920;29;20212;-77
2021/04/05 09:39:03;;;;;;;3.20;0.73;;;8.60;99.90;;;;;;4910608;29;20223;-77
2021/04/05 09:42:28;;;;;;;2.77;0.70;;;8.60;99.90;;;;;;4914592;29;20297;-77
2021/04/05 09:45:18;;;;;;;2.90;1.17;;;8.60;99.90;;;;;;4909707;29;20199;-77
2021/04/05 09:48:36;;;;;;;0.90;0.60;;;8.40;99.90;;;;;;4915787;29;20576;-77
2021/04/05 09:52:11;;;;;;;1.37;0.50;;;8.20;99.90;;;;;;4915112;29;20615;-77
2021/04/05 09:55:03;;;;;;;3.17;0.90;;;8.10;99.90;;;;;;4872790;29;20273;-77
2021/04/05 09:57:54;;;;;;;2.40;0.90;;;8.00;99.90;;;;;;4873694;29;20221;-78
2021/04/05 10:00:39;;;;;;;4.73;1.53;;;8.00;99.90;;;;;;4909586;29;20243;-78
2021/04/05 10:03:26;;;;;;;4.63;0.80;;;8.20;99.90;;;;;;4909328;29;20215;-78
2021/04/05 10:06:12;;;;;;;2.73;0.90;;;8.30;99.90;;;;;;4905851;29;20281;-75
2021/04/05 10:08:59;;;;;;;6.60;1.30;;;8.40;99.90;;;;;;4894269;29;20660;-75
2021/04/05 10:11:44;;;;;;;6.20;1.17;;;8.50;99.90;;;;;;4899133;29;20215;-75
2021/04/05 10:14:30;;;;;;;3.03;1.17;;;8.50;99.90;;;;;;4906314;29;20635;-77
2021/04/05 10:17:21;;;;;;;7.83;1.60;;;8.60;99.90;;;;;;4913358;29;20223;-78
2021/04/05 10:20:07;;;;;;;5.70;1.47;;;8.70;99.90;;;;;;4916590;29;20307;-77
2021/04/05 10:22:54;;;;;;;3.50;1.23;;;8.70;99.90;;;;;;4916673;29;20584;-77
2021/04/05 10:25:42;;;;;;;4.97;1.30;;;8.80;99.90;;;;;;4915910;29;20282;-77
2021/04/05 10:28:29;;;;;;;5.57;1.10;;;8.90;99.90;;;;;;4916705;29;20319;-76
2021/04/05 10:31:17;;;;;;;5.87;1.40;;;8.90;99.90;;;;;;4916766;29;20216;-76
2021/04/05 10:34:06;;;;;;;3.93;1.00;;;8.90;99.90;;;;;;4917452;29;20264;-76
2021/04/05 10:36:57;;;;;;;5.37;1.40;;;8.90;99.90;;;;;;4910514;29;20228;-76
2021/04/05 10:39:47;;;;;;;8.03;1.80;;;8.70;99.90;;;;;;4912775;29;20290;-76
2021/04/05 10:42:37;;;;;;;6.67;1.70;;;8.60;99.90;;;;;;4913126;29;20286;-76
2021/04/05 10:45:25;;;;;;;8.03;2.10;;;8.50;99.90;;;;;;4915414;29;20203;-76
2021/04/05 10:48:19;;;;;;;6.30;1.73;;;8.40;99.90;;;;;;4913349;29;20229;-76
2021/04/05 10:51:08;;;;;;;10.70;2.07;;;8.40;99.90;;;;;;4914906;29;20592;-76
2021/04/05 10:54:00;;;;;;;7.93;2.17;;;8.30;99.90;;;;;;4911531;29;20220;-76
2021/04/05 10:56:48;;;;;;;9.10;1.97;;;8.40;99.90;;;;;;4901712;29;20212;-76
2021/04/05 10:59:39;;;;;;;7.20;1.57;;;8.50;99.90;;;;;;4904880;29;20292;-76
2021/04/05 11:02:28;;;;;;;11.00;2.00;;;8.60;99.90;;;;;;4899827;29;20621;-76
2021/04/05 11:05:18;;;;;;;8.87;1.93;;;8.70;99.90;;;;;;4913589;29;20199;-76
2021/04/05 11:08:05;;;;;;;8.23;2.10;;;8.80;99.90;;;;;;4904134;29;20265;-76
2021/04/05 11:11:01;;;;;;;5.60;1.40;;;8.90;99.90;;;;;;4912970;29;20207;-76
2021/04/05 11:13:51;;;;;;;5.97;2.37;;;9.00;99.90;;;;;;4909420;29;20226;-76
2021/04/05 11:16:37;;;;;;;6.97;1.77;;;9.40;99.90;;;;;;4898823;29;20590;-76
2021/04/05 11:19:30;;;;;;;6.90;1.63;;;9.80;99.90;;;;;;4916503;29;20259;-76
2021/04/05 11:22:19;;;;;;;6.37;1.70;;;10.50;99.90;;;;;;4914671;29;20283;-77
2021/04/05 11:25:07;;;;;;;7.03;1.93;;;11.20;99.90;;;;;;4915944;29;20216;-77
2021/04/05 11:28:00;;;;;;;9.63;2.20;;;12.00;97.20;;;;;;4917310;29;20235;-77
2021/04/05 11:30:48;;;;;;;7.67;2.23;;;12.50;94.60;;;;;;4912680;29;20235;-76
2021/04/05 11:33:36;;;;;;;7.90;2.10;;;12.80;94.70;;;;;;4914858;29;20272;-76
2021/04/05 11:36:22;;;;;;;6.13;2.00;;;12.70;93.50;;;;;;4909824;29;20279;-76
2021/04/05 11:39:11;;;;;;;8.23;1.60;;;12.60;93.20;;;;;;4914173;29;20765;-76
2021/04/05 11:41:58;;;;;;;7.30;2.13;;;12.30;93.20;;;;;;4915224;29;20215;-76
2021/04/05 11:44:49;;;;;;;4.70;1.30;;;12.00;92.30;;;;;;4913782;29;20572;-76
2021/04/05 11:47:37;;;;;;;3.83;1.07;;;11.70;94.90;;;;;;4912539;29;20575;-76
2021/04/05 11:50:26;;;;;;;4.07;1.27;;;11.50;97.40;;;;;;4906192;29;20644;-76
2021/04/05 11:53:20;;;;;;;5.47;1.70;;;11.60;97.30;;;;;;4913155;29;20343;-77
2021/04/05 11:56:19;;;;;;;5.93;1.67;;;12.10;95.80;;;;;;4912121;29;20231;-77
2021/04/05 11:59:10;;;;;;;9.00;2.17;;;12.80;95.60;;;;;;4912752;29;20235;-77
2021/04/05 12:02:00;;;;;;;10.83;2.50;;;13.60;94.60;;;;;;4902240;29;21479;-78
2021/04/05 12:04:49;;;;;;;8.00;2.03;;;14.50;96.50;;;;;;4914639;29;20213;-78
2021/04/05 12:07:36;;;;;;;5.73;1.83;;;15.30;91.80;;;;;;4913613;29;20227;-78
2021/04/05 12:10:26;;;;;;;6.80;1.70;;;16.10;88.40;;;;;;4909585;29;20293;-77
2021/04/05 12:13:16;;;;;;;6.10;2.07;;;17.00;88.00;;;;;;4906283;29;20227;-76
2021/04/05 12:16:02;;;;;;;7.23;1.83;;;17.70;82.10;;;;;;4906681;29;20754;-77
2021/04/05 12:18:51;;;;;;;6.83;1.73;;;18.50;70.90;;;;;;4911371;29;20239;-77
2021/04/05 12:21:37;;;;;;;7.20;1.50;;;19.10;65.70;;;;;;4915894;29;20287;-76
2021/04/05 12:24:29;;;;;;;6.83;2.17;;;19.40;64.10;;;;;;4911699;29;20221;-76
2021/04/05 12:27:15;;;;;;;6.97;1.90;;;19.50;64.00;;;;;;4915772;29;20290;-76
2021/04/05 12:30:01;;;;;;;7.20;1.80;;;19.30;65.30;;;;;;4913422;29;20870;-77
2021/04/05 12:32:49;;;;;;;6.57;1.67;;;18.90;61.90;;;;;;4913422;29;20240;-76
2021/04/05 12:35:35;;;;;;;8.00;1.83;;;18.70;64.40;;;;;;4912133;29;20239;-76
2021/04/05 12:38:29;;;;;;;12.77;2.30;;;18.70;61.90;;;;;;4912892;29;20243;-77
2021/04/05 12:41:16;;;;;;;8.23;1.90;;;18.50;60.30;;;;;;4911600;29;20235;-77
2021/04/05 12:44:03;;;;;;;4.57;1.17;;;18.50;63.30;;;;;;4912451;29;20261;-76
2021/04/05 12:46:51;;;;;;;7.30;1.40;;;18.00;62.60;;;;;;4914936;29;20253;-76
2021/04/05 12:49:37;;;;;;;5.43;1.43;;;17.50;66.00;;;;;;4914034;29;20259;-76
2021/04/05 12:52:31;;;;;;;6.50;1.40;;;16.90;64.90;;;;;;4912516;29;20287;-76
2021/04/05 12:55:19;;;;;;;7.03;1.63;;;16.50;66.50;;;;;;4913445;29;20223;-76
2021/04/05 12:58:05;;;;;;;5.67;1.80;;;16.40;65.20;;;;;;4913738;29;20684;-76
2021/04/05 13:00:50;;;;;;;7.13;1.20;;;16.70;64.80;;;;;;4900816;29;20311;-77
2021/04/05 13:03:39;;;;;;;4.87;1.40;;;16.80;63.20;;;;;;4914162;29;20202;-76
2021/04/05 13:06:26;;;;;;;5.60;1.43;;;17.20;63.20;;;;;;4911788;29;20212;-77
2021/04/05 13:09:18;;;;;;;3.70;1.17;;;17.60;63.20;;;;;;4904372;29;20240;-77
2021/04/05 13:12:05;;;;;;;6.33;1.20;;;17.90;60.80;;;;;;4906596;29;20223;-77
2021/04/05 13:14:54;;;;;;;3.93;1.20;;;18.40;60.60;;;;;;4912194;29;20319;-77
2021/04/05 13:17:42;;;;;;;3.23;1.10;;;18.70;59.50;;;;;;4907399;29;20254;-77
2021/04/05 13:20:31;;;;;;;5.30;1.30;;;19.10;58.70;;;;;;4908991;29;20241;-77
2021/04/05 13:23:22;;;;;;;4.87;1.17;;;19.40;57.50;;;;;;4908012;29;20230;-77
2021/04/05 13:26:11;;;;;;;3.63;1.23;;;19.80;56.70;;;;;;4913102;29;20714;-77
2021/04/05 13:28:57;;;;;;;4.93;1.33;;;20.00;56.00;;;;;;4907983;29;20236;-77
2021/04/05 13:31:44;;;;;;;4.07;1.20;;;20.40;56.40;;;;;;4911747;29;20246;-78
2021/04/05 13:34:32;;;;;;;8.77;1.40;;;20.70;54.40;;;;;;4910711;29;20253;-78
2021/04/05 13:37:18;;;;;;;4.67;1.20;;;20.90;52.90;;;;;;4909096;29;20691;-77
2021/04/05 13:40:05;;;;;;;6.10;1.37;;;21.00;49.40;;;;;;4906424;29;20261;-77
2021/04/05 13:42:54;;;;;;;3.33;1.10;;;20.90;51.20;;;;;;4911712;29;20629;-77
2021/04/05 13:45:46;;;;;;;8.83;1.90;;;20.60;50.30;;;;;;4912427;29;20248;-77
2021/04/05 13:48:32;;;;;;;9.57;2.10;;;20.20;47.80;;;;;;4912992;29;20757;-77
2021/04/05 13:51:23;;;;;;;6.97;1.80;;;19.80;47.50;;;;;;4914433;29;20215;-76
2021/04/05 13:54:10;;;;;;;4.23;1.60;;;19.50;48.00;;;;;;4907923;29;20234;-76
2021/04/05 13:56:57;;;;;;;6.27;1.87;;;19.30;47.50;;;;;;4912422;29;20685;-77
2021/04/05 13:59:59;;;;;;;9.07;1.60;;;19.20;48.00;;;;;;4904761;29;20321;-77
2021/04/05 14:02:51;;;;;;;5.93;1.87;;;19.20;48.90;;;;;;4914576;29;20216;-77
2021/04/05 14:05:38;;;;;;;3.60;0.83;;;19.20;48.70;;;;;;4907653;29;20331;-77
2021/04/05 14:08:25;;;;;;;5.10;1.27;;;19.30;48.70;;;;;;4914173;29;20598;-77
2021/04/05 14:11:13;;;;;;;5.50;1.17;;;19.40;47.90;;;;;;4915324;29;20259;-78
2021/04/05 14:13:59;;;;;;;7.27;1.10;;;19.50;49.60;;;;;;4912263;29;20224;-78
2021/04/05 14:16:48;;;;;;;3.70;1.23;;;19.60;49.10;;;;;;4913983;29;20718;-77
2021/04/05 14:19:39;;;;;;;5.53;1.00;;;19.80;49.00;;;;;;4911584;29;20356;-77
2021/04/05 14:22:33;;;;;;;6.80;1.70;;;20.10;50.20;;;;;;4913193;29;20218;-77
2021/04/05 14:25:23;;;;;;;6.10;1.40;;;20.20;49.30;;;;;;4907113;29;20198;-77
2021/04/05 14:28:13;;;;;;;5.03;1.17;;;20.40;49.50;;;;;;4912255;29;20315;-78
2021/04/05 14:31:09;;;;;;;3.40;1.43;;;20.60;49.20;;;;;;4911308;29;20296;-77
2021/04/05 14:33:57;;;;;;;8.20;1.63;;;20.80;49.10;;;;;;4908509;29;20254;-78
2021/04/05 14:36:44;;;;;;;5.47;1.27;;;20.90;49.90;;;;;;4915298;29;20697;-78
2021/04/05 14:39:34;;;;;;;4.73;1.60;;;21.10;50.10;;;;;;4911202;29;20344;-78
2021/04/05 14:42:24;;;;;;;6.87;2.00;;;21.20;51.50;;;;;;4910262;29;20228;-77
2021/04/05 14:45:12;;;;;;;5.10;1.37;;;21.30;49.80;;;;;;4910991;29;20209;-77